createdAt,value
2019-02-16T00:00:30.631Z,-3.55
2019-02-16T00:03:00.237Z,-3.53
2019-02-16T00:05:29.737Z,-3.59
2019-02-16T00:07:59.282Z,-3.57
2019-02-16T00:10:48.143Z,-3.50
2019-02-16T00:13:31.271Z,-3.89
2019-02-16T00:16:00.773Z,-4.01
2019-02-16T00:18:30.299Z,-3.85
2019-02-16T00:21:03.988Z,-3.88
2019-02-16T00:23:31.065Z,-3.86
2019-02-16T00:26:00.590Z,-3.86
2019-02-16T00:28:30.120Z,-3.78
2019-02-16T00:30:59.654Z,-3.71
2019-02-16T00:33:29.220Z,-3.72
2019-02-16T00:35:58.722Z,-3.78
2019-02-16T00:38:28.264Z,-3.78
2019-02-16T00:40:57.785Z,-3.80
2019-02-16T00:43:27.342Z,-3.82
2019-02-16T00:45:56.844Z,-3.82
2019-02-16T00:48:26.370Z,-3.78
2019-02-16T00:50:55.895Z,-3.71
2019-02-16T00:53:25.430Z,-3.83
2019-02-16T00:55:56.167Z,-3.81
2019-02-16T00:58:25.694Z,-3.96
2019-02-16T01:00:55.205Z,-4.02
2019-02-16T01:03:24.746Z,-3.98
2019-02-16T01:05:54.281Z,-3.99
2019-02-16T01:08:25.023Z,-3.96
2019-02-16T01:10:54.540Z,-4.05
2019-02-16T01:13:24.051Z,-4.16
2019-02-16T01:15:53.572Z,-4.05
2019-02-16T01:18:23.068Z,-4.07
2019-02-16T01:20:53.833Z,-4.05
2019-02-16T01:23:23.340Z,-4.06
2019-02-16T01:25:52.890Z,-4.09
2019-02-16T01:28:22.434Z,-4.12
2019-02-16T01:31:11.285Z,-4.21
2019-02-16T01:33:40.784Z,-5.21
2019-02-16T01:36:10.339Z,-4.24
2019-02-16T01:38:39.847Z,-4.04
2019-02-16T01:41:10.545Z,-4.23
2019-02-16T01:43:40.081Z,-4.23
2019-02-16T01:46:09.620Z,-4.25
2019-02-16T01:48:39.119Z,-4.33
2019-02-16T01:51:08.674Z,-4.37
2019-02-16T01:53:38.873Z,-4.38
2019-02-16T01:56:08.394Z,-4.39
2019-02-16T01:58:37.904Z,-4.37
2019-02-16T02:01:07.431Z,-4.32
2019-02-16T02:03:36.940Z,-4.31
2019-02-16T02:06:07.270Z,-4.37
2019-02-16T02:08:36.792Z,-4.43
2019-02-16T02:11:07.000Z,-4.36
2019-02-16T02:13:36.531Z,-4.38
2019-02-16T02:16:06.114Z,-4.46
2019-02-16T02:18:35.687Z,-4.54
2019-02-16T02:21:05.187Z,-4.52
2019-02-16T02:23:34.723Z,-4.51
2019-02-16T02:26:04.311Z,-4.57
2019-02-16T02:28:33.883Z,-4.60
2019-02-16T02:31:03.976Z,-4.62
2019-02-16T02:33:33.480Z,-4.57
2019-02-16T02:36:03.015Z,-4.65
2019-02-16T02:38:32.515Z,-4.62
2019-02-16T02:41:02.037Z,-4.67
2019-02-16T02:43:32.275Z,-4.66
2019-02-16T02:46:01.825Z,-4.74
2019-02-16T02:48:31.356Z,-4.66
2019-02-16T02:51:00.886Z,-4.51
2019-02-16T02:53:31.433Z,-4.67
2019-02-16T02:56:01.398Z,-4.28
2019-02-16T02:58:30.902Z,-4.11
2019-02-16T03:01:00.490Z,-4.45
2019-02-16T03:03:29.994Z,-4.72
2019-02-16T03:05:59.510Z,-4.81
2019-02-16T03:08:29.042Z,-4.87
2019-02-16T03:10:58.561Z,-4.86
2019-02-16T03:13:28.085Z,-4.91
2019-02-16T03:15:57.594Z,-4.95
2019-02-16T03:18:27.132Z,-4.85
2019-02-16T03:20:56.662Z,-4.91
2019-02-16T03:23:26.196Z,-4.88
2019-02-16T03:26:14.783Z,-4.83
2019-02-16T03:28:51.905Z,-4.89
2019-02-16T03:32:01.957Z,-4.99
2019-02-16T03:34:53.847Z,-5.03
2019-02-16T03:37:39.754Z,-5.03
2019-02-16T03:40:23.164Z,-5.07
2019-02-16T03:42:52.688Z,-4.81
2019-02-16T03:45:41.538Z,-4.94
2019-02-16T03:48:11.054Z,-4.95
2019-02-16T03:50:40.554Z,-5.00
2019-02-16T03:53:10.116Z,-5.08
2019-02-16T03:55:39.607Z,-5.09
2019-02-16T03:58:09.160Z,-5.06
2019-02-16T04:00:38.654Z,-5.12
2019-02-16T04:03:08.200Z,-5.17
2019-02-16T04:05:37.693Z,-5.16
2019-02-16T04:08:07.214Z,-5.15
2019-02-16T04:10:36.734Z,-5.20
2019-02-16T04:13:06.237Z,-5.24
2019-02-16T04:15:35.760Z,-4.97
2019-02-16T04:18:05.281Z,-5.14
2019-02-16T04:20:34.790Z,-5.19
2019-02-16T04:23:04.296Z,-5.30
2019-02-16T04:25:33.788Z,-5.37
2019-02-16T04:28:03.355Z,-5.29
2019-02-16T04:30:32.908Z,-5.36
2019-02-16T04:33:21.783Z,-5.34
2019-02-16T04:36:10.646Z,-5.37
2019-02-16T04:38:40.173Z,-5.49
2019-02-16T04:41:09.684Z,-5.07
2019-02-16T04:43:39.216Z,-5.05
2019-02-16T04:46:09.005Z,-5.28
2019-02-16T04:48:38.539Z,-5.41
2019-02-16T04:51:08.058Z,-5.55
2019-02-16T04:53:37.596Z,-5.62
2019-02-16T04:56:07.103Z,-5.65
2019-02-16T04:58:36.629Z,-5.49
2019-02-16T05:01:06.230Z,-5.56
2019-02-16T05:03:35.739Z,-5.47
2019-02-16T05:06:05.261Z,-5.53
2019-02-16T05:08:34.791Z,-5.64
2019-02-16T05:11:04.301Z,-5.69
2019-02-16T05:13:33.808Z,-5.67
2019-02-16T05:16:03.338Z,-5.70
2019-02-16T05:18:32.848Z,-5.67
2019-02-16T05:21:02.346Z,-5.58
2019-02-16T05:23:31.874Z,-5.64
2019-02-16T05:26:01.373Z,-5.40
2019-02-16T05:28:30.894Z,-5.59
2019-02-16T05:31:00.411Z,-5.64
2019-02-16T05:33:29.928Z,-5.68
2019-02-16T05:35:59.427Z,-5.82
2019-02-16T05:38:28.948Z,-5.80
2019-02-16T05:40:59.686Z,-5.86
2019-02-16T05:43:29.235Z,-5.87
2019-02-16T05:45:58.734Z,-5.91
2019-02-16T05:48:28.235Z,-5.88
2019-02-16T05:50:57.748Z,-5.93
2019-02-16T05:53:28.539Z,-6.02
2019-02-16T05:55:58.048Z,-5.96
2019-02-16T05:58:27.560Z,-5.89
2019-02-16T06:00:57.065Z,-5.90
2019-02-16T06:03:26.592Z,-5.86
2019-02-16T06:05:57.247Z,-5.90
2019-02-16T06:08:26.746Z,-5.84
2019-02-16T06:10:56.252Z,-5.81
2019-02-16T06:13:25.762Z,-5.73
2019-02-16T06:15:55.284Z,-5.82
2019-02-16T06:18:25.488Z,-5.84
2019-02-16T06:20:54.983Z,-5.90
2019-02-16T06:23:24.499Z,-5.81
2019-02-16T06:25:54.011Z,-5.81
2019-02-16T06:28:23.525Z,-5.81
2019-02-16T06:30:53.819Z,-5.84
2019-02-16T06:33:23.336Z,-5.92
2019-02-16T06:35:54.509Z,-5.72
2019-02-16T06:38:24.037Z,-5.67
2019-02-16T06:40:53.536Z,-5.67
2019-02-16T06:43:23.061Z,-5.58
2019-02-16T06:45:52.553Z,-5.60
2019-02-16T06:48:22.048Z,-5.40
2019-02-16T06:50:51.584Z,-4.87
2019-02-16T06:53:21.173Z,-4.61
2019-02-16T06:55:52.315Z,-3.31
2019-02-16T06:58:21.836Z,-2.88
2019-02-16T07:00:51.367Z,-2.44
2019-02-16T07:03:21.197Z,-1.41
2019-02-16T07:05:50.689Z,-0.03
2019-02-16T07:08:20.206Z,0.31
2019-02-16T07:10:49.735Z,-0.64
2019-02-16T07:13:19.309Z,-1.52
2019-02-16T07:15:50.480Z,-0.91
2019-02-16T07:18:21.632Z,-1.85
2019-02-16T07:20:51.223Z,-2.60
2019-02-16T07:23:22.770Z,-2.92
2019-02-16T07:25:52.021Z,-3.00
2019-02-16T07:28:21.544Z,-3.03
2019-02-16T07:30:51.131Z,-2.88
2019-02-16T07:33:20.662Z,-2.50
2019-02-16T07:35:50.152Z,-2.38
2019-02-16T07:38:19.695Z,-2.37
2019-02-16T07:40:49.219Z,-2.32
2019-02-16T07:43:20.369Z,-1.98
2019-02-16T07:45:51.532Z,-1.56
2019-02-16T07:48:25.672Z,-1.71
2019-02-16T07:50:59.697Z,-1.73
2019-02-16T07:53:45.751Z,-1.25
2019-02-16T07:56:16.894Z,-0.25
2019-02-16T07:58:48.301Z,1.08
2019-02-16T08:01:25.165Z,6.06
2019-02-16T08:04:12.104Z,9.40
2019-02-16T08:06:46.839Z,9.33
2019-02-16T08:09:20.409Z,9.88
2019-02-16T08:11:51.607Z,10.75
2019-02-16T08:14:25.468Z,11.01
2019-02-16T08:16:56.587Z,11.92
2019-02-16T08:19:27.734Z,12.74
2019-02-16T08:22:01.585Z,15.30
2019-02-16T08:24:48.873Z,18.17
2019-02-16T08:27:20.028Z,15.84
2019-02-16T08:29:51.197Z,14.12
2019-02-16T08:32:27.153Z,16.20
2019-02-16T08:34:59.135Z,16.16
2019-02-16T08:37:46.287Z,16.11
2019-02-16T08:40:29.176Z,17.76
2019-02-16T08:43:15.949Z,17.93
2019-02-16T08:45:58.830Z,18.01
2019-02-16T08:48:33.903Z,18.46
2019-02-16T08:51:17.134Z,17.19
2019-02-16T08:54:03.006Z,16.58
2019-02-16T08:56:34.159Z,17.77
2019-02-16T08:59:05.329Z,16.87
2019-02-16T09:01:40.608Z,16.89
2019-02-16T09:04:17.900Z,17.34
2019-02-16T09:06:57.792Z,16.57
2019-02-16T09:09:45.017Z,16.05
2019-02-16T09:12:28.037Z,16.24
2019-02-16T09:14:59.229Z,16.77
2019-02-16T09:17:39.111Z,16.74
2019-02-16T09:20:10.299Z,16.97
2019-02-16T09:22:41.451Z,17.29
2019-02-16T09:25:12.611Z,17.66
2019-02-16T09:27:59.610Z,17.61
2019-02-16T09:30:30.788Z,17.29
2019-02-16T09:33:13.772Z,17.48
2019-02-16T09:35:47.645Z,18.21
2019-02-16T09:38:21.594Z,15.54
2019-02-16T09:40:58.617Z,12.85
2019-02-16T09:43:29.745Z,13.17
2019-02-16T09:46:03.402Z,15.34
2019-02-16T09:48:40.175Z,16.16
2019-02-16T09:51:14.058Z,14.87
2019-02-16T09:53:51.182Z,13.61
2019-02-16T09:56:20.479Z,12.59
2019-02-16T09:58:54.680Z,12.21
2019-02-16T10:01:31.644Z,10.70
2019-02-16T10:04:02.774Z,12.55
2019-02-16T10:06:49.083Z,13.94
2019-02-16T10:09:25.701Z,12.04
2019-02-16T10:11:56.841Z,11.67
2019-02-16T10:14:28.783Z,12.82
2019-02-16T10:17:09.991Z,12.72
2019-02-16T10:19:41.210Z,12.70
2019-02-16T10:22:13.426Z,11.64
2019-02-16T10:24:42.726Z,11.32
2019-02-16T10:27:13.914Z,12.66
2019-02-16T10:30:00.474Z,12.72
2019-02-16T10:32:40.325Z,12.18
2019-02-16T10:35:27.628Z,11.55
2019-02-16T10:38:13.830Z,11.43
2019-02-16T10:40:45.674Z,11.25
2019-02-16T10:43:28.308Z,11.85
2019-02-16T10:46:05.391Z,13.25
2019-02-16T10:48:36.498Z,13.78
2019-02-16T10:51:16.539Z,14.27
2019-02-16T10:53:53.985Z,14.44
2019-02-16T10:56:25.118Z,14.25
2019-02-16T10:58:58.961Z,14.93
2019-02-16T11:01:30.130Z,15.21
2019-02-16T11:04:01.264Z,15.44
2019-02-16T11:06:44.590Z,18.97
2019-02-16T11:09:21.142Z,19.78
2019-02-16T11:11:55.258Z,18.46
2019-02-16T11:14:38.246Z,21.42
2019-02-16T11:17:12.324Z,20.94
2019-02-16T11:19:43.453Z,21.03
2019-02-16T11:22:23.462Z,21.03
2019-02-16T11:24:55.836Z,23.51
2019-02-16T11:27:44.914Z,20.94
2019-02-16T11:30:25.071Z,21.97
2019-02-16T11:33:01.809Z,20.98
2019-02-16T11:36:09.719Z,20.43
2019-02-16T11:38:40.871Z,20.26
2019-02-16T11:41:18.655Z,19.52
2019-02-16T11:43:59.950Z,19.34
2019-02-16T11:46:42.904Z,20.54
2019-02-16T11:49:26.025Z,19.82
2019-02-16T11:52:12.190Z,20.01
2019-02-16T11:54:48.952Z,20.81
2019-02-16T11:57:18.262Z,21.38
2019-02-16T11:59:49.422Z,21.35
2019-02-16T12:02:26.332Z,21.33
2019-02-16T12:05:09.106Z,21.69
2019-02-16T12:07:48.942Z,21.61
2019-02-16T12:10:22.765Z,21.65
2019-02-16T12:13:02.627Z,22.72
2019-02-16T12:15:37.693Z,22.34
2019-02-16T12:18:08.838Z,21.78
2019-02-16T12:20:45.764Z,21.46
2019-02-16T12:23:16.964Z,21.86
2019-02-16T12:25:50.972Z,22.53
2019-02-16T12:28:30.938Z,22.47
2019-02-16T12:31:02.088Z,22.29
2019-02-16T12:33:31.415Z,20.87
2019-02-16T12:36:39.822Z,21.27
2019-02-16T12:39:13.645Z,20.82
2019-02-16T12:41:53.309Z,22.63
2019-02-16T12:44:25.258Z,20.83
2019-02-16T12:47:05.507Z,22.25
2019-02-16T12:49:54.518Z,22.39
2019-02-16T12:52:41.592Z,23.23
2019-02-16T12:55:14.997Z,23.20
2019-02-16T12:57:51.340Z,23.38
2019-02-16T13:00:40.153Z,24.34
2019-02-16T13:03:26.866Z,24.82
2019-02-16T13:06:13.786Z,22.39
2019-02-16T13:08:47.604Z,21.89
2019-02-16T13:11:30.495Z,22.99
2019-02-16T13:14:17.557Z,21.95
2019-02-16T13:17:04.854Z,22.81
2019-02-16T13:19:34.370Z,23.40
2019-02-16T13:22:08.010Z,24.45
2019-02-16T13:24:41.580Z,26.42
2019-02-16T13:27:28.840Z,24.77
2019-02-16T13:29:58.126Z,23.28
2019-02-16T13:32:29.289Z,23.60
2019-02-16T13:35:16.226Z,26.15
2019-02-16T13:38:02.457Z,23.72
2019-02-16T13:40:51.360Z,24.55
2019-02-16T13:43:35.083Z,28.35
2019-02-16T13:46:22.442Z,23.57
2019-02-16T13:49:02.746Z,24.25
2019-02-16T13:51:39.654Z,24.22
2019-02-16T13:54:13.528Z,27.37
2019-02-16T13:57:00.556Z,25.09
2019-02-16T13:59:43.392Z,23.64
2019-02-16T14:02:16.971Z,24.42
2019-02-16T14:04:50.898Z,23.84
2019-02-16T14:07:31.172Z,24.25
2019-02-16T14:10:18.220Z,22.44
2019-02-16T14:12:53.543Z,23.38
2019-02-16T14:15:25.528Z,20.81
2019-02-16T14:17:55.062Z,19.20
2019-02-16T14:20:24.581Z,19.19
2019-02-16T14:22:54.095Z,18.47
2019-02-16T14:25:25.234Z,18.11
2019-02-16T14:27:54.774Z,18.36
2019-02-16T14:30:24.329Z,17.91
2019-02-16T14:32:53.814Z,17.58
2019-02-16T14:35:23.318Z,17.59
2019-02-16T14:37:54.571Z,17.82
2019-02-16T14:40:25.707Z,17.47
2019-02-16T14:42:55.252Z,16.91
2019-02-16T14:45:24.769Z,16.89
2019-02-16T14:47:54.304Z,16.54
2019-02-16T14:50:23.806Z,16.49
2019-02-16T14:52:53.323Z,16.66
2019-02-16T14:55:22.843Z,16.51
2019-02-16T14:57:52.368Z,16.27
2019-02-16T15:00:21.894Z,16.18
2019-02-16T15:02:51.394Z,15.98
2019-02-16T15:05:21.009Z,15.94
2019-02-16T15:07:50.495Z,15.80
2019-02-16T15:10:19.981Z,15.90
2019-02-16T15:12:49.526Z,15.62
2019-02-16T15:15:19.014Z,15.41
2019-02-16T15:17:48.502Z,15.31
2019-02-16T15:20:18.400Z,15.37
2019-02-16T15:22:47.949Z,15.25
2019-02-16T15:25:17.434Z,14.97
2019-02-16T15:27:46.921Z,14.82
2019-02-16T15:30:21.435Z,14.46
2019-02-16T15:32:51.110Z,14.19
2019-02-16T15:35:20.753Z,14.18
2019-02-16T15:37:50.234Z,13.99
2019-02-16T15:40:19.760Z,13.86
2019-02-16T15:42:49.268Z,13.73
2019-02-16T15:45:18.788Z,13.51
2019-02-16T15:47:48.374Z,13.33
2019-02-16T15:50:17.896Z,13.03
2019-02-16T15:52:47.409Z,12.63
2019-02-16T15:55:16.916Z,12.31
2019-02-16T15:57:46.446Z,12.04
2019-02-16T16:00:22.983Z,11.71
2019-02-16T16:02:52.572Z,11.62
2019-02-16T16:05:22.076Z,10.65
2019-02-16T16:08:05.340Z,9.96
2019-02-16T16:10:36.512Z,9.78
2019-02-16T16:13:10.681Z,9.35
2019-02-16T16:15:57.880Z,8.92
2019-02-16T16:18:34.682Z,8.68
2019-02-16T16:21:05.833Z,8.78
2019-02-16T16:23:37.177Z,8.75
2019-02-16T16:26:19.099Z,8.18
2019-02-16T16:29:00.675Z,7.66
2019-02-16T16:31:31.399Z,7.23
2019-02-16T16:34:00.693Z,6.80
2019-02-16T16:36:40.351Z,6.46
2019-02-16T16:39:11.593Z,6.17
2019-02-16T16:41:45.339Z,6.39
2019-02-16T16:44:22.203Z,6.09
2019-02-16T16:47:09.557Z,6.24
2019-02-16T16:49:40.706Z,5.50
2019-02-16T16:52:11.845Z,5.21
2019-02-16T16:54:43.017Z,4.87
2019-02-16T16:57:16.806Z,4.74
2019-02-16T16:59:56.544Z,4.53
2019-02-16T17:02:33.356Z,4.42
2019-02-16T17:05:22.095Z,4.27
2019-02-16T17:08:01.984Z,4.11
2019-02-16T17:10:40.316Z,3.95
2019-02-16T17:13:20.078Z,3.67
2019-02-16T17:15:53.668Z,3.52
2019-02-16T17:18:22.923Z,3.39
2019-02-16T17:21:06.178Z,3.32
2019-02-16T17:23:40.054Z,3.40
2019-02-16T17:26:11.219Z,3.60
2019-02-16T17:28:53.918Z,3.35
2019-02-16T17:31:30.763Z,3.26
2019-02-16T17:34:04.583Z,2.88
2019-02-16T17:36:53.846Z,2.74
2019-02-16T17:39:27.600Z,2.54
2019-02-16T17:42:14.558Z,2.44
2019-02-16T17:44:48.663Z,2.36
2019-02-16T17:47:19.820Z,2.19
2019-02-16T17:50:07.069Z,2.38
2019-02-16T17:52:38.480Z,2.23
2019-02-16T17:55:09.728Z,1.95
2019-02-16T17:57:43.322Z,1.84
2019-02-16T18:00:29.998Z,1.77
2019-02-16T18:03:19.142Z,1.63
2019-02-16T18:06:06.326Z,1.55
2019-02-16T18:08:40.400Z,1.43
2019-02-16T18:11:11.563Z,1.39
2019-02-16T18:13:45.696Z,1.20
2019-02-16T18:16:35.016Z,1.01
2019-02-16T18:19:42.905Z,0.97
2019-02-16T18:22:14.038Z,1.07
2019-02-16T18:24:53.910Z,1.09
2019-02-16T18:27:25.877Z,0.85
2019-02-16T18:30:09.457Z,0.73
2019-02-16T18:32:43.274Z,0.60
2019-02-16T18:35:24.212Z,0.48
2019-02-16T18:38:01.214Z,0.45
2019-02-16T18:40:49.970Z,0.48
2019-02-16T18:43:37.147Z,0.48
2019-02-16T18:46:09.112Z,0.28
2019-02-16T18:48:45.942Z,0.27
2019-02-16T18:51:22.801Z,0.14
2019-02-16T18:53:53.955Z,0.08
2019-02-16T18:56:41.347Z,0.01
2019-02-16T18:59:12.475Z,-0.16
2019-02-16T19:01:43.648Z,-0.18
2019-02-16T19:04:14.830Z,-0.23
2019-02-16T19:06:54.718Z,-0.17
2019-02-16T19:09:42.019Z,-0.25
2019-02-16T19:12:19.113Z,-0.42
2019-02-16T19:14:50.275Z,-0.59
2019-02-16T19:17:26.885Z,-0.54
2019-02-16T19:20:03.741Z,-0.61
2019-02-16T19:22:50.825Z,-0.65
2019-02-16T19:25:39.925Z,-0.74
2019-02-16T19:28:26.849Z,-0.82
2019-02-16T19:31:03.443Z,-0.84
2019-02-16T19:33:37.284Z,-0.72
2019-02-16T19:36:11.069Z,-0.58
2019-02-16T19:38:58.359Z,-0.59
2019-02-16T19:42:06.264Z,-0.75
2019-02-16T19:45:14.127Z,-0.70
2019-02-16T19:48:01.550Z,-0.92
2019-02-16T19:51:10.028Z,-1.99
2019-02-16T19:53:56.009Z,-1.42
2019-02-16T19:56:43.113Z,-1.13
2019-02-16T19:59:23.368Z,-1.04
2019-02-16T20:02:00.345Z,-1.15
2019-02-16T20:04:43.042Z,-1.33
2019-02-16T20:07:19.991Z,-1.33
2019-02-16T20:09:51.378Z,-1.38
2019-02-16T20:12:25.040Z,-1.36
2019-02-16T20:15:05.560Z,-1.30
2019-02-16T20:17:52.633Z,-1.37
2019-02-16T20:20:26.869Z,-1.33
2019-02-16T20:23:13.135Z,-1.49
2019-02-16T20:25:44.299Z,-1.52
2019-02-16T20:28:13.711Z,-1.60
2019-02-16T20:30:45.652Z,-1.54
2019-02-16T20:33:16.831Z,-1.57
2019-02-16T20:35:48.012Z,-1.61
2019-02-16T20:38:19.131Z,-1.62
2019-02-16T20:40:50.274Z,-1.68
2019-02-16T20:43:26.918Z,-1.77
2019-02-16T20:46:00.997Z,-1.79
2019-02-16T20:48:37.985Z,-1.88
2019-02-16T20:51:25.023Z,-1.86
2019-02-16T20:54:11.071Z,-1.90
2019-02-16T20:56:42.231Z,-1.89
2019-02-16T20:59:22.404Z,-1.90
2019-02-16T21:01:53.614Z,-1.83
2019-02-16T21:04:27.870Z,-1.70
2019-02-16T21:07:07.928Z,-1.87
2019-02-16T21:09:47.738Z,-1.67
2019-02-16T21:12:21.458Z,-2.08
2019-02-16T21:14:55.086Z,-1.98
2019-02-16T21:17:26.248Z,-1.93
2019-02-16T21:20:13.248Z,-1.91
2019-02-16T21:22:59.508Z,-2.11
2019-02-16T21:26:07.394Z,-2.20
2019-02-16T21:28:51.883Z,-2.17
2019-02-16T21:31:25.758Z,-2.17
2019-02-16T21:33:56.904Z,-2.21
2019-02-16T21:36:30.123Z,-2.21
2019-02-16T21:39:06.884Z,-2.23
2019-02-16T21:41:40.744Z,-2.27
2019-02-16T21:44:17.892Z,-2.31
2019-02-16T21:46:54.977Z,-2.28
2019-02-16T21:49:41.759Z,-2.22
2019-02-16T21:52:15.920Z,-2.21
2019-02-16T21:54:55.889Z,-2.05
2019-02-16T21:57:32.789Z,-2.21
2019-02-16T22:00:06.836Z,-2.42
2019-02-16T22:02:38.049Z,-2.35
2019-02-16T22:05:09.897Z,-2.52
2019-02-16T22:07:56.675Z,-2.54
2019-02-16T22:10:27.877Z,-2.60
2019-02-16T22:13:05.702Z,-2.62
2019-02-16T22:15:35.242Z,-2.65
2019-02-16T22:18:04.908Z,-2.64
2019-02-16T22:20:34.405Z,-2.73
2019-02-16T22:23:03.933Z,-2.79
2019-02-16T22:25:52.833Z,-2.82
2019-02-16T22:28:34.815Z,-2.85
2019-02-16T22:31:04.328Z,-2.81
2019-02-16T22:33:33.833Z,-2.68
2019-02-16T22:36:03.364Z,-2.53
2019-02-16T22:38:32.863Z,-2.73
2019-02-16T22:41:02.390Z,-2.87
2019-02-16T22:43:31.904Z,-2.96
2019-02-16T22:46:02.156Z,-3.01
2019-02-16T22:48:31.687Z,-2.99
2019-02-16T22:51:01.183Z,-2.97
2019-02-16T22:53:30.694Z,-3.12
2019-02-16T22:56:19.586Z,-3.19
2019-02-16T22:58:49.103Z,-3.28
2019-02-16T23:01:18.742Z,-3.11
2019-02-16T23:03:48.335Z,-3.16
2019-02-16T23:06:18.368Z,-3.15
2019-02-16T23:08:47.865Z,-3.18
2019-02-16T23:11:17.410Z,-3.19
2019-02-16T23:13:46.998Z,-3.26
2019-02-16T23:16:16.802Z,-3.30
2019-02-16T23:18:46.977Z,-3.30
2019-02-16T23:21:16.498Z,-3.31
2019-02-16T23:23:46.095Z,-3.32
2019-02-16T23:26:15.671Z,-3.35
2019-02-16T23:28:45.202Z,-3.37
2019-02-16T23:31:15.306Z,-3.34
2019-02-16T23:33:44.824Z,-3.36
2019-02-16T23:36:14.344Z,-3.41
2019-02-16T23:38:43.879Z,-3.40
2019-02-16T23:41:13.399Z,-3.45
2019-02-16T23:43:43.643Z,-3.40
2019-02-16T23:46:13.182Z,-3.33
2019-02-16T23:48:42.703Z,-3.53
2019-02-16T23:51:12.230Z,-3.59
2019-02-16T23:53:41.770Z,-3.57
2019-02-16T23:56:12.092Z,-3.61
2019-02-16T23:58:48.977Z,-3.64
